Time;durP1;ratioP1;P1;durP2;ratioP2;P2;SDS_P1;SDS_P2;PMS_P1;PMS_P2;Temp;Humidity;BMP_temperature;BMP_pressure;BME280_temperature;BME280_humidity;BME280_pressure;Samples;Min_cycle;Max_cycle;Signal;HPM_P1;HPM_P2
2023/08/23 00:01:47;;;;;;;16.90;7.57;;;18.60;99.90;;;;;;4896907;29;20140;-69
2023/08/23 00:04:13;;;;;;;8.75;6.32;;;18.60;99.90;;;;;;4897204;29;20166;-69
2023/08/23 00:06:39;;;;;;;11.15;7.20;;;18.60;99.90;;;;;;4881776;29;20096;-69
2023/08/23 00:09:05;;;;;;;10.25;7.00;;;18.50;99.90;;;;;;4887182;29;20056;-68
2023/08/23 00:11:31;;;;;;;9.68;7.65;;;18.50;99.90;;;;;;4894812;29;20108;-69
2023/08/23 00:13:57;;;;;;;13.25;7.50;;;18.50;99.90;;;;;;4898143;29;20052;-69
2023/08/23 00:16:23;;;;;;;11.75;7.85;;;18.50;99.90;;;;;;4887007;29;20445;-69
2023/08/23 00:18:51;;;;;;;11.55;7.53;;;18.40;99.90;;;;;;4896187;29;20485;-69
2023/08/23 00:21:17;;;;;;;10.75;7.65;;;18.40;99.90;;;;;;4883280;29;20487;-72
2023/08/23 00:23:43;;;;;;;14.90;7.70;;;18.40;99.90;;;;;;4896267;29;20048;-68
2023/08/23 00:26:11;;;;;;;10.32;7.80;;;18.40;99.90;;;;;;4893235;29;20052;-68
2023/08/23 00:28:38;;;;;;;9.82;7.20;;;18.40;99.90;;;;;;4894631;29;20045;-68
2023/08/23 00:31:04;;;;;;;9.73;7.00;;;18.40;99.90;;;;;;4862812;29;20493;-68
2023/08/23 00:33:30;;;;;;;11.95;7.68;;;18.40;99.90;;;;;;4881091;29;20052;-74
2023/08/23 00:35:55;;;;;;;10.60;7.40;;;18.40;99.90;;;;;;4878337;29;20045;-68
2023/08/23 00:38:21;;;;;;;13.63;8.38;;;18.30;99.90;;;;;;4862073;29;20496;-69
2023/08/23 00:40:47;;;;;;;8.88;7.45;;;18.30;99.90;;;;;;4877446;29;20128;-68
2023/08/23 00:43:12;;;;;;;12.45;8.10;;;18.20;99.90;;;;;;4872716;29;20060;-68
2023/08/23 00:45:41;;;;;;;10.68;7.80;;;18.20;99.90;;;;;;4879463;29;20052;-69
2023/08/23 00:48:08;;;;;;;11.57;7.75;;;18.20;99.90;;;;;;4878428;29;20053;-69
2023/08/23 00:50:34;;;;;;;11.10;7.65;;;18.20;99.90;;;;;;4876868;29;20045;-76
2023/08/23 00:53:02;;;;;;;10.75;7.25;;;18.20;99.90;;;;;;4883359;29;20344;-68
2023/08/23 00:55:29;;;;;;;9.25;7.45;;;18.10;99.90;;;;;;4882970;29;20045;-68
2023/08/23 00:57:55;;;;;;;11.50;7.57;;;18.20;99.90;;;;;;4876349;29;20041;-69
2023/08/23 01:00:21;;;;;;;9.95;7.55;;;18.10;99.90;;;;;;4877446;29;20077;-69
2023/08/23 01:02:48;;;;;;;10.52;7.72;;;18.10;99.90;;;;;;4861191;29;20049;-69
2023/08/23 01:05:15;;;;;;;12.23;8.93;;;18.10;99.90;;;;;;4890457;29;20051;-69
2023/08/23 01:08:14;;;;;;;12.43;8.30;;;18.00;99.90;;;;;;4863248;29;20087;-73
2023/08/23 01:11:21;;;;;;;14.77;8.70;;;18.00;99.90;;;;;;4834556;29;20471;-69
2023/08/23 01:13:54;;;;;;;15.50;8.50;;;18.00;99.90;;;;;;4850813;29;20099;-68
2023/08/23 01:16:21;;;;;;;13.00;8.95;;;17.90;99.90;;;;;;4878045;29;20085;-68
2023/08/23 01:18:47;;;;;;;12.55;9.13;;;17.90;99.90;;;;;;4876332;29;20531;-68
2023/08/23 01:21:19;;;;;;;14.70;8.63;;;17.90;99.90;;;;;;4877712;29;20052;-69
2023/08/23 01:23:45;;;;;;;11.65;8.88;;;17.80;99.90;;;;;;4877670;29;20468;-69
2023/08/23 01:26:11;;;;;;;11.27;9.07;;;17.80;99.90;;;;;;4882246;29;20124;-69
2023/08/23 01:28:37;;;;;;;11.52;9.10;;;17.80;99.90;;;;;;4876827;29;20120;-69
2023/08/23 01:31:07;;;;;;;13.68;8.88;;;17.80;99.90;;;;;;4877509;29;20045;-69
2023/08/23 01:33:39;;;;;;;14.10;8.55;;;17.70;99.90;;;;;;4878836;29;20112;-69
2023/08/23 01:36:38;;;;;;;11.00;9.10;;;17.80;99.90;;;;;;4888941;29;20103;-69
2023/08/23 01:39:04;;;;;;;14.20;9.43;;;17.80;99.90;;;;;;4874194;29;20091;-68
2023/08/23 01:41:30;;;;;;;12.57;8.88;;;17.70;99.90;;;;;;4870769;29;20049;-69
2023/08/23 01:43:57;;;;;;;16.90;9.55;;;17.70;99.90;;;;;;4881666;29;20059;-68
2023/08/23 01:46:23;;;;;;;13.88;9.15;;;17.70;99.90;;;;;;4896998;29;20096;-69
2023/08/23 01:48:48;;;;;;;14.38;9.48;;;17.60;99.90;;;;;;4898762;29;20044;-69
2023/08/23 01:51:14;;;;;;;12.98;8.75;;;17.60;99.90;;;;;;4892725;29;20045;-69
2023/08/23 01:53:40;;;;;;;15.32;9.05;;;17.60;99.90;;;;;;4891988;29;20052;-69
2023/08/23 01:56:05;;;;;;;14.07;8.70;;;17.60;99.90;;;;;;4879458;29;20061;-68
2023/08/23 01:58:31;;;;;;;16.02;9.43;;;17.60;99.90;;;;;;4890411;29;20060;-68
2023/08/23 02:00:58;;;;;;;12.82;9.40;;;17.60;99.90;;;;;;4884054;29;20045;-68
2023/08/23 02:03:24;;;;;;;12.35;9.68;;;17.60;99.90;;;;;;4882420;29;20045;-69
2023/08/23 02:05:50;;;;;;;12.30;8.93;;;17.50;99.90;;;;;;4879715;29;20105;-69
2023/08/23 02:08:17;;;;;;;15.57;9.50;;;17.60;99.90;;;;;;4864987;29;20227;-68
2023/08/23 02:10:43;;;;;;;13.02;9.27;;;17.50;99.90;;;;;;4883194;29;20052;-75
2023/08/23 02:13:08;;;;;;;13.90;8.75;;;17.50;99.90;;;;;;4891655;29;20055;-68
2023/08/23 02:15:34;;;;;;;12.73;8.73;;;17.50;99.90;;;;;;4886440;29;20053;-74
2023/08/23 02:18:00;;;;;;;16.98;9.25;;;17.50;99.90;;;;;;4866904;29;20053;-69
2023/08/23 02:20:26;;;;;;;14.00;10.00;;;17.50;99.90;;;;;;4862965;29;20131;-70
2023/08/23 02:22:51;;;;;;;14.38;9.70;;;17.50;99.90;;;;;;4880567;29;20124;-68
2023/08/23 02:25:17;;;;;;;13.90;8.77;;;17.40;99.90;;;;;;4881941;29;20044;-68
2023/08/23 02:27:43;;;;;;;11.50;9.40;;;17.40;99.90;;;;;;4880971;29;20063;-69
2023/08/23 02:30:09;;;;;;;17.52;9.15;;;17.50;99.90;;;;;;4879747;29;20045;-68
2023/08/23 02:32:34;;;;;;;13.75;10.13;;;17.50;99.90;;;;;;4880819;29;20041;-68
2023/08/23 02:35:02;;;;;;;12.75;9.43;;;17.40;99.90;;;;;;4880232;29;20403;-70
2023/08/23 02:37:27;;;;;;;14.13;9.27;;;17.40;99.90;;;;;;4890978;29;20056;-69
2023/08/23 02:39:53;;;;;;;12.77;9.27;;;17.40;99.90;;;;;;4894672;29;20048;-69
2023/08/23 02:42:19;;;;;;;11.85;9.82;;;17.40;99.90;;;;;;4880956;29;20049;-68
2023/08/23 02:44:44;;;;;;;17.60;10.57;;;17.40;99.90;;;;;;4881050;29;20045;-70
2023/08/23 02:47:10;;;;;;;12.40;9.50;;;17.40;99.90;;;;;;4879959;29;20049;-69
2023/08/23 02:49:36;;;;;;;14.50;10.13;;;17.40;99.90;;;;;;4880353;29;20056;-67
2023/08/23 02:52:02;;;;;;;14.98;10.32;;;17.30;99.90;;;;;;4880234;29;20045;-67
2023/08/23 02:54:28;;;;;;;15.25;10.52;;;17.30;99.90;;;;;;4880911;29;20076;-67
2023/08/23 02:56:54;;;;;;;14.77;9.90;;;17.30;99.90;;;;;;4885890;29;20045;-68
2023/08/23 02:59:20;;;;;;;17.38;10.90;;;17.30;99.90;;;;;;4878484;29;20064;-69
2023/08/23 03:01:46;;;;;;;14.07;9.98;;;17.30;99.90;;;;;;4880221;29;20045;-67
2023/08/23 03:04:11;;;;;;;14.05;9.68;;;17.30;99.90;;;;;;4878936;29;20077;-69
2023/08/23 03:06:37;;;;;;;17.90;10.55;;;17.30;99.90;;;;;;4880186;29;20053;-69
2023/08/23 03:09:03;;;;;;;15.07;10.23;;;17.30;99.90;;;;;;4884380;29;20156;-69
2023/08/23 03:11:28;;;;;;;17.50;11.00;;;17.30;99.90;;;;;;4886287;29;20049;-68
2023/08/23 03:13:55;;;;;;;15.00;11.23;;;17.30;99.90;;;;;;4895722;29;20049;-69
2023/08/23 03:16:21;;;;;;;18.50;11.18;;;17.30;99.90;;;;;;4894368;29;20348;-69
2023/08/23 03:18:47;;;;;;;14.07;10.15;;;17.30;99.90;;;;;;4881148;29;20045;-68
2023/08/23 03:21:13;;;;;;;16.58;10.88;;;17.30;99.90;;;;;;4898281;29;20047;-69
2023/08/23 03:23:39;;;;;;;16.90;10.77;;;17.30;99.90;;;;;;4884032;29;20048;-69
2023/08/23 03:26:05;;;;;;;17.52;11.35;;;17.40;99.90;;;;;;4881339;29;20112;-69
2023/08/23 03:28:31;;;;;;;17.70;11.05;;;17.40;99.90;;;;;;4881396;29;20048;-68
2023/08/23 03:31:03;;;;;;;15.77;11.40;;;17.40;99.90;;;;;;4896683;29;20459;-69
2023/08/23 03:33:29;;;;;;;17.83;11.77;;;17.40;99.90;;;;;;4898738;29;20052;-68
2023/08/23 03:35:56;;;;;;;15.80;11.05;;;17.50;99.90;;;;;;4891931;29;20451;-75
2023/08/23 03:38:21;;;;;;;16.75;11.30;;;17.50;99.90;;;;;;4887701;29;20193;-68
2023/08/23 03:40:49;;;;;;;18.27;11.18;;;17.50;99.90;;;;;;4894121;29;20052;-68
2023/08/23 03:43:15;;;;;;;14.57;10.57;;;17.50;99.90;;;;;;4897895;29;20074;-68
2023/08/23 03:45:50;;;;;;;15.07;10.70;;;17.50;99.90;;;;;;4898498;29;20400;-68
2023/08/23 03:48:17;;;;;;;13.98;10.88;;;17.50;99.90;;;;;;4888903;29;20056;-69
2023/08/23 03:50:43;;;;;;;17.23;11.52;;;17.50;99.90;;;;;;4879850;29;20049;-69
2023/08/23 03:53:08;;;;;;;15.30;11.35;;;17.50;99.90;;;;;;4895789;29;20048;-69
2023/08/23 03:55:36;;;;;;;14.50;10.98;;;17.50;99.90;;;;;;4887904;29;20049;-69
2023/08/23 03:58:05;;;;;;;17.75;11.07;;;17.50;99.90;;;;;;4893737;29;20052;-69
2023/08/23 04:00:31;;;;;;;15.07;10.32;;;17.50;99.90;;;;;;4883991;29;20071;-69
2023/08/23 04:02:58;;;;;;;16.05;11.23;;;17.50;99.90;;;;;;4877634;29;20520;-74
2023/08/23 04:05:24;;;;;;;20.80;11.63;;;17.50;99.90;;;;;;4877837;29;20132;-68
2023/08/23 04:07:49;;;;;;;14.80;10.50;;;17.50;99.90;;;;;;4866620;29;20140;-70
2023/08/23 04:10:15;;;;;;;16.23;10.48;;;17.50;99.90;;;;;;4872199;29;20464;-68
2023/08/23 04:12:41;;;;;;;13.20;10.05;;;17.50;99.90;;;;;;4866902;29;20096;-69
2023/08/23 04:15:07;;;;;;;13.45;10.15;;;17.50;99.90;;;;;;4874784;29;20064;-68
2023/08/23 04:17:32;;;;;;;14.27;10.85;;;17.50;99.90;;;;;;4877639;29;20059;-69
2023/08/23 04:19:58;;;;;;;12.15;10.05;;;17.40;99.90;;;;;;4862034;29;20465;-69
2023/08/23 04:22:24;;;;;;;12.88;9.70;;;17.40;99.90;;;;;;4878215;29;20101;-69
2023/08/23 04:24:51;;;;;;;14.00;10.48;;;17.40;99.90;;;;;;4869189;29;20113;-70
2023/08/23 04:27:16;;;;;;;15.32;10.43;;;17.40;99.90;;;;;;4894225;29;20410;-69
2023/08/23 04:29:42;;;;;;;13.70;9.90;;;17.40;99.90;;;;;;4895798;29;20049;-68
2023/08/23 04:32:12;;;;;;;14.80;10.68;;;17.30;99.90;;;;;;4891506;29;20056;-68
2023/08/23 04:34:38;;;;;;;12.80;10.07;;;17.30;99.90;;;;;;4868804;29;20532;-69
2023/08/23 04:37:05;;;;;;;15.07;10.55;;;17.30;99.90;;;;;;4876708;29;20045;-75
2023/08/23 04:39:31;;;;;;;13.15;10.30;;;17.20;99.90;;;;;;4877707;29;20495;-71
2023/08/23 04:41:56;;;;;;;12.57;9.60;;;17.20;99.90;;;;;;4880841;29;20056;-69
2023/08/23 04:44:22;;;;;;;15.88;11.18;;;17.20;99.90;;;;;;4877952;29;20060;-69
2023/08/23 04:46:48;;;;;;;13.95;10.73;;;17.30;99.90;;;;;;4878595;29;20547;-68
2023/08/23 04:49:13;;;;;;;14.18;11.75;;;17.20;99.90;;;;;;4878001;29;20056;-68
2023/08/23 04:51:39;;;;;;;17.35;12.23;;;17.20;99.90;;;;;;4876994;29;20455;-68
2023/08/23 04:54:05;;;;;;;15.18;13.27;;;17.20;99.90;;;;;;4878898;29;20509;-75
2023/08/23 04:56:30;;;;;;;16.27;12.63;;;17.20;99.90;;;;;;4861864;29;20056;-69
2023/08/23 04:58:56;;;;;;;16.98;12.82;;;17.20;99.90;;;;;;4878149;29;20045;-68
2023/08/23 05:01:22;;;;;;;17.45;13.65;;;17.20;99.90;;;;;;4878195;29;20088;-69
2023/08/23 05:03:47;;;;;;;17.23;14.15;;;17.20;99.90;;;;;;4879665;29;20414;-68
2023/08/23 05:06:13;;;;;;;18.00;14.70;;;17.20;99.90;;;;;;4877876;29;20057;-69
2023/08/23 05:08:40;;;;;;;18.85;14.25;;;17.20;99.90;;;;;;4878314;29;20484;-68
2023/08/23 05:11:06;;;;;;;21.70;16.20;;;17.20;99.90;;;;;;4875820;29;20064;-70
2023/08/23 05:13:31;;;;;;;21.05;15.88;;;17.20;99.90;;;;;;4891512;29;20052;-68
2023/08/23 05:15:57;;;;;;;21.92;15.45;;;17.20;99.90;;;;;;4890134;29;20538;-68
2023/08/23 05:18:23;;;;;;;22.23;15.93;;;17.30;99.90;;;;;;4877937;29;20087;-69
2023/08/23 05:20:59;;;;;;;20.92;15.95;;;17.30;99.90;;;;;;4877930;29;20441;-69
2023/08/23 05:23:25;;;;;;;19.38;15.73;;;17.30;99.90;;;;;;4881983;29;20055;-68
2023/08/23 05:25:52;;;;;;;22.10;15.48;;;17.40;99.90;;;;;;4877229;29;20131;-69
2023/08/23 05:28:18;;;;;;;21.30;15.90;;;17.40;99.90;;;;;;4877638;29;20440;-68
2023/08/23 05:30:45;;;;;;;23.08;17.50;;;17.50;99.90;;;;;;4877933;29;20055;-69
2023/08/23 05:33:12;;;;;;;24.40;16.55;;;17.40;99.90;;;;;;4880354;29;20049;-76
2023/08/23 05:35:39;;;;;;;20.48;16.90;;;17.40;99.90;;;;;;4877332;29;20049;-68
2023/08/23 05:38:05;;;;;;;21.38;16.33;;;17.50;99.90;;;;;;4877775;29;20053;-68
2023/08/23 05:40:32;;;;;;;21.48;17.20;;;17.50;99.90;;;;;;4876297;29;20124;-68
2023/08/23 05:42:57;;;;;;;22.50;16.70;;;17.50;99.90;;;;;;4878557;29;20546;-70
2023/08/23 05:45:26;;;;;;;23.17;17.45;;;17.50;99.90;;;;;;4876794;29;20041;-68
2023/08/23 05:47:54;;;;;;;23.73;18.17;;;17.50;99.90;;;;;;4877376;29;20053;-68
2023/08/23 05:50:20;;;;;;;21.85;17.30;;;17.50;99.90;;;;;;4877294;29;20052;-69
2023/08/23 05:52:46;;;;;;;21.88;17.77;;;17.50;99.90;;;;;;4877725;29;20108;-69
2023/08/23 05:55:12;;;;;;;25.75;17.90;;;17.50;99.90;;;;;;4878708;29;20511;-75
2023/08/23 05:57:37;;;;;;;21.98;17.00;;;17.60;99.90;;;;;;4877692;29;20049;-69
2023/08/23 06:00:05;;;;;;;24.45;16.55;;;17.80;99.90;;;;;;4876411;29;20510;-70
2023/08/23 06:02:31;;;;;;;19.80;15.55;;;18.20;99.90;;;;;;4875753;29;20080;-69
2023/08/23 06:04:57;;;;;;;18.08;14.60;;;18.90;99.90;;;;;;4879318;29;20088;-69
2023/08/23 06:07:23;;;;;;;18.45;14.02;;;19.40;99.90;;;;;;4875585;29;20060;-69
2023/08/23 06:09:48;;;;;;;18.90;13.70;;;19.90;99.90;;;;;;4876374;29;20064;-69
2023/08/23 06:12:14;;;;;;;19.05;13.48;;;20.40;99.90;;;;;;4879756;29;20037;-76
2023/08/23 06:14:40;;;;;;;17.50;13.20;;;20.80;99.90;;;;;;4892939;29;20060;-68
2023/08/23 06:17:06;;;;;;;16.45;11.55;;;20.80;99.90;;;;;;4876242;29;20101;-67
2023/08/23 06:19:32;;;;;;;17.38;11.45;;;20.60;99.90;;;;;;4876940;29;20120;-68
2023/08/23 06:21:58;;;;;;;16.75;11.18;;;20.40;99.90;;;;;;4877648;29;20083;-68
2023/08/23 06:24:24;;;;;;;12.50;10.63;;;20.20;99.90;;;;;;4885960;29;20435;-68
2023/08/23 06:26:50;;;;;;;12.35;9.60;;;20.30;99.90;;;;;;4878216;29;20068;-68
2023/08/23 06:29:17;;;;;;;13.63;10.40;;;20.50;99.90;;;;;;4882040;29;20050;-68
2023/08/23 06:31:42;;;;;;;14.07;10.73;;;20.40;99.90;;;;;;4896157;29;20132;-68
2023/08/23 06:34:08;;;;;;;15.35;9.27;;;20.30;99.90;;;;;;4897634;29;20127;-70
2023/08/23 06:36:34;;;;;;;11.13;9.85;;;20.00;99.90;;;;;;4887006;29;20475;-70
2023/08/23 06:38:59;;;;;;;11.90;8.77;;;19.90;99.90;;;;;;4889970;29;20119;-69
2023/08/23 06:41:25;;;;;;;11.38;8.88;;;20.20;99.90;;;;;;4882548;29;20048;-69
2023/08/23 06:44:01;;;;;;;13.65;9.30;;;20.90;99.90;;;;;;4885292;29;20096;-69
2023/08/23 06:46:27;;;;;;;15.68;9.35;;;21.80;99.90;;;;;;4890903;29;20045;-68
2023/08/23 06:48:56;;;;;;;12.82;8.40;;;22.40;99.90;;;;;;4888772;29;20462;-71
2023/08/23 06:51:23;;;;;;;11.38;8.70;;;23.10;99.90;;;;;;4877820;29;20512;-69
2023/08/23 06:53:52;;;;;;;10.40;8.40;;;23.70;99.90;;;;;;4863951;29;20049;-68
2023/08/23 06:56:17;;;;;;;10.77;8.18;;;24.30;99.90;;;;;;4880473;29;20052;-68
2023/08/23 06:58:43;;;;;;;11.50;8.57;;;24.80;99.90;;;;;;4879677;29;20049;-68
2023/08/23 07:01:14;;;;;;;10.73;8.40;;;25.10;99.90;;;;;;4880193;29;20064;-68
2023/08/23 07:03:43;;;;;;;15.35;8.68;;;25.50;99.90;;;;;;4878433;29;20063;-68
2023/08/23 07:06:14;;;;;;;12.52;8.35;;;25.70;99.90;;;;;;4877074;29;20060;-70
2023/08/23 07:08:41;;;;;;;9.57;8.52;;;25.90;99.90;;;;;;4879399;29;20463;-68
2023/08/23 07:11:07;;;;;;;9.60;7.90;;;26.10;99.90;;;;;;4880203;29;20056;-68
2023/08/23 07:13:34;;;;;;;10.35;9.05;;;26.50;99.90;;;;;;4878463;29;20064;-69
2023/08/23 07:16:00;;;;;;;13.10;9.35;;;26.80;99.90;;;;;;4879842;29;20060;-68
2023/08/23 07:18:26;;;;;;;11.20;9.07;;;26.90;99.90;;;;;;4879439;29;20455;-70
2023/08/23 07:20:51;;;;;;;11.95;9.07;;;27.20;99.90;;;;;;4882930;29;20045;-68
2023/08/23 07:23:17;;;;;;;10.48;8.48;;;27.50;99.90;;;;;;4880212;29;20116;-68
2023/08/23 07:25:44;;;;;;;9.88;8.10;;;27.50;99.90;;;;;;4865062;29;20052;-69
2023/08/23 07:28:11;;;;;;;10.07;8.10;;;27.60;99.90;;;;;;4880406;29;20808;-68
2023/08/23 07:30:37;;;;;;;11.40;8.73;;;27.80;99.90;;;;;;4878589;29;20064;-69
2023/08/23 07:33:03;;;;;;;10.75;8.00;;;27.90;99.90;;;;;;4878947;29;20064;-68
2023/08/23 07:35:30;;;;;;;11.13;7.95;;;27.90;99.90;;;;;;4879487;29;20040;-69
2023/08/23 07:37:55;;;;;;;9.40;7.30;;;28.20;99.90;;;;;;4878657;29;20049;-69
2023/08/23 07:40:21;;;;;;;11.07;7.30;;;28.80;99.90;;;;;;4878851;29;20056;-68
2023/08/23 07:42:47;;;;;;;9.77;6.60;;;29.30;99.90;;;;;;4879054;29;20618;-68
2023/08/23 07:45:12;;;;;;;10.00;7.20;;;29.60;99.70;;;;;;4879907;29;20488;-68
2023/08/23 07:47:38;;;;;;;9.05;6.85;;;29.30;99.40;;;;;;4877870;29;20412;-69
2023/08/23 07:50:05;;;;;;;9.38;6.55;;;28.80;99.90;;;;;;4878237;29;20052;-71
2023/08/23 07:52:31;;;;;;;6.95;5.78;;;28.60;99.90;;;;;;4877962;29;20053;-71
2023/08/23 07:54:56;;;;;;;8.02;6.85;;;28.50;99.90;;;;;;4862846;29;20411;-69
2023/08/23 07:57:22;;;;;;;10.45;7.15;;;28.70;99.90;;;;;;4878666;29;20408;-69
2023/08/23 07:59:48;;;;;;;8.35;6.93;;;28.80;99.70;;;;;;4862178;29;20053;-69
2023/08/23 08:02:14;;;;;;;9.77;7.07;;;28.40;99.90;;;;;;4876975;29;20449;-69
2023/08/23 08:04:39;;;;;;;10.45;7.45;;;28.10;99.90;;;;;;4878322;29;20155;-70
2023/08/23 08:07:06;;;;;;;7.03;6.20;;;27.80;99.90;;;;;;4877944;29;20140;-69
2023/08/23 08:09:32;;;;;;;8.15;6.25;;;28.10;99.90;;;;;;4877507;29;20047;-76
2023/08/23 08:11:58;;;;;;;9.05;6.68;;;28.60;99.90;;;;;;4877928;29;20045;-69
2023/08/23 08:14:23;;;;;;;11.27;6.40;;;29.30;99.70;;;;;;4879426;29;20041;-69
2023/08/23 08:16:49;;;;;;;9.48;6.65;;;29.90;98.90;;;;;;4877806;29;20132;-71
2023/08/23 08:19:15;;;;;;;10.02;6.32;;;30.40;98.40;;;;;;4880021;29;20041;-69
2023/08/23 08:21:40;;;;;;;8.43;5.93;;;30.90;98.10;;;;;;4878356;29;20049;-69
2023/08/23 08:24:06;;;;;;;9.32;5.70;;;31.10;97.80;;;;;;4878877;29;20049;-69
2023/08/23 08:26:32;;;;;;;8.32;5.72;;;31.30;97.60;;;;;;4878080;29;20380;-74
2023/08/23 08:28:58;;;;;;;7.63;6.38;;;31.50;97.30;;;;;;4877250;29;20200;-68
2023/08/23 08:31:24;;;;;;;7.72;5.90;;;31.80;96.90;;;;;;4877936;29;20147;-69
2023/08/23 08:33:50;;;;;;;8.85;6.10;;;32.00;95.90;;;;;;4890053;29;20083;-69
2023/08/23 08:36:15;;;;;;;8.07;5.10;;;32.00;96.00;;;;;;4878312;29;20179;-69
2023/08/23 08:38:41;;;;;;;8.57;5.40;;;32.20;96.60;;;;;;4884907;29;20053;-69
2023/08/23 08:41:09;;;;;;;9.40;4.88;;;32.30;96.30;;;;;;4877157;29;20525;-68
2023/08/23 08:43:36;;;;;;;8.45;5.30;;;32.40;96.00;;;;;;4861860;29;20462;-75
2023/08/23 08:46:05;;;;;;;8.98;5.65;;;32.50;96.00;;;;;;4877952;29;20088;-69
2023/08/23 08:48:31;;;;;;;9.77;5.70;;;32.30;95.20;;;;;;4877314;29;20049;-69
2023/08/23 08:50:59;;;;;;;7.88;5.07;;;31.50;95.90;;;;;;4858341;29;20060;-69
2023/08/23 08:53:27;;;;;;;7.78;5.70;;;31.00;96.60;;;;;;4868976;29;20043;-69
2023/08/23 08:55:52;;;;;;;9.48;5.50;;;30.60;96.80;;;;;;4876875;29;20052;-71
2023/08/23 08:58:21;;;;;;;9.55;5.70;;;30.00;97.20;;;;;;4858224;29;20047;-69
2023/08/23 09:00:53;;;;;;;9.25;6.38;;;29.40;97.80;;;;;;4876381;29;20045;-70
2023/08/23 09:03:21;;;;;;;8.13;5.47;;;28.90;98.20;;;;;;4878289;29;20049;-68
2023/08/23 09:05:50;;;;;;;9.55;5.78;;;28.80;98.60;;;;;;4877589;29;20419;-69
2023/08/23 09:08:16;;;;;;;8.50;5.57;;;29.00;98.50;;;;;;4879022;29;20519;-70
2023/08/23 09:10:42;;;;;;;7.35;4.97;;;29.30;98.30;;;;;;4870961;29;20055;-70
2023/08/23 09:13:07;;;;;;;8.52;5.13;;;29.60;98.20;;;;;;4849341;29;20412;-73
2023/08/23 09:15:33;;;;;;;9.05;5.68;;;30.10;97.90;;;;;;4870314;29;20136;-69
2023/08/23 09:17:59;;;;;;;10.32;5.90;;;30.60;97.70;;;;;;4872873;29;20130;-69
2023/08/23 09:20:25;;;;;;;8.00;5.60;;;31.00;97.20;;;;;;4871712;29;20049;-70
2023/08/23 09:22:52;;;;;;;6.88;5.13;;;30.90;97.00;;;;;;4863692;29;20530;-69
2023/08/23 09:25:18;;;;;;;11.13;5.57;;;30.60;97.50;;;;;;4881132;29;20467;-69
2023/08/23 09:27:43;;;;;;;8.60;4.55;;;30.60;97.80;;;;;;4877032;29;20052;-69
2023/08/23 09:30:11;;;;;;;8.80;5.32;;;30.80;97.70;;;;;;4880769;29;20345;-69
2023/08/23 09:32:37;;;;;;;8.60;5.15;;;30.90;96.90;;;;;;4872640;29;20049;-70
2023/08/23 09:35:10;;;;;;;8.10;5.60;;;30.80;97.00;;;;;;4862592;29;20100;-69
2023/08/23 09:37:38;;;;;;;6.93;5.57;;;30.70;96.80;;;;;;4887035;29;20403;-70
2023/08/23 09:40:04;;;;;;;8.50;5.28;;;30.30;97.20;;;;;;4876104;29;20137;-70
2023/08/23 09:42:33;;;;;;;8.88;6.15;;;29.80;97.60;;;;;;4875365;29;20061;-69
2023/08/23 09:45:01;;;;;;;7.60;5.65;;;29.50;98.00;;;;;;4860412;29;20053;-68
2023/08/23 09:47:31;;;;;;;10.07;6.80;;;29.30;98.30;;;;;;4878738;29;20080;-71
2023/08/23 09:49:59;;;;;;;7.53;5.95;;;28.90;98.60;;;;;;4877688;29;20040;-71
2023/08/23 09:52:30;;;;;;;9.52;6.57;;;28.60;98.90;;;;;;4887665;29;20499;-70
2023/08/23 09:55:11;;;;;;;13.00;6.50;;;28.50;99.20;;;;;;4892678;29;20064;-70
2023/08/23 09:57:38;;;;;;;7.55;5.60;;;28.40;99.70;;;;;;4882470;29;20045;-70
2023/08/23 10:00:04;;;;;;;9.43;6.28;;;28.50;99.30;;;;;;4893064;29;20037;-70
2023/08/23 10:02:32;;;;;;;8.82;5.72;;;28.40;99.40;;;;;;4887851;29;20037;-70
2023/08/23 10:05:00;;;;;;;11.32;6.40;;;28.30;99.40;;;;;;4879780;29;20113;-69
2023/08/23 10:07:26;;;;;;;7.93;5.75;;;28.30;99.10;;;;;;4881258;29;20067;-69
2023/08/23 10:09:53;;;;;;;9.02;5.97;;;28.30;99.20;;;;;;4868592;29;20056;-69
2023/08/23 10:12:20;;;;;;;10.45;6.72;;;28.20;99.20;;;;;;4880505;29;20103;-69
2023/08/23 10:14:48;;;;;;;8.40;6.47;;;28.20;99.40;;;;;;4865315;29;20068;-69
2023/08/23 10:17:19;;;;;;;9.98;6.45;;;28.20;99.30;;;;;;4881313;29;20049;-69
2023/08/23 10:19:49;;;;;;;11.40;6.05;;;28.10;99.40;;;;;;4885772;29;20152;-69
2023/08/23 10:22:17;;;;;;;10.27;6.60;;;28.00;99.60;;;;;;4882771;29;20052;-69
2023/08/23 10:24:47;;;;;;;8.25;5.45;;;27.90;99.50;;;;;;4882800;29;20414;-69
2023/08/23 10:27:13;;;;;;;9.43;5.72;;;27.90;99.60;;;;;;4880543;29;20057;-69
2023/08/23 10:29:39;;;;;;;8.18;5.60;;;28.00;99.40;;;;;;4882038;29;20045;-68
2023/08/23 10:32:09;;;;;;;8.30;4.90;;;28.00;99.10;;;;;;4880584;29;20543;-68
2023/08/23 10:34:37;;;;;;;8.20;5.28;;;28.10;98.80;;;;;;4879402;29;20053;-68
2023/08/23 10:37:19;;;;;;;12.07;5.93;;;28.00;98.80;;;;;;4878853;29;20052;-69
2023/08/23 10:39:53;;;;;;;7.00;5.13;;;28.00;99.00;;;;;;4881327;29;20053;-68
2023/08/23 10:42:21;;;;;;;8.93;5.20;;;28.00;98.80;;;;;;4880761;29;20045;-68
2023/08/23 10:44:55;;;;;;;9.57;5.90;;;28.00;99.30;;;;;;4886422;29;20491;-68
2023/08/23 10:47:22;;;;;;;9.13;4.68;;;28.00;98.90;;;;;;4885690;29;20045;-69
2023/08/23 10:49:50;;;;;;;10.65;4.68;;;28.00;99.00;;;;;;4899146;29;20054;-69
2023/08/23 10:52:16;;;;;;;7.93;4.50;;;28.00;98.80;;;;;;4891996;29;20127;-68
2023/08/23 10:54:42;;;;;;;5.13;2.90;;;27.90;98.90;;;;;;4885020;29;20140;-69
2023/08/23 10:57:08;;;;;;;5.97;3.08;;;28.10;98.30;;;;;;4882725;29;20052;-69
2023/08/23 10:59:34;;;;;;;7.05;2.90;;;28.00;97.50;;;;;;4888598;29;20056;-68
2023/08/23 11:02:00;;;;;;;8.80;3.83;;;28.10;98.10;;;;;;4872901;29;20104;-67
2023/08/23 11:04:26;;;;;;;7.85;4.45;;;28.10;97.90;;;;;;4884353;29;20077;-68
2023/08/23 11:06:52;;;;;;;7.35;4.38;;;28.20;98.20;;;;;;4878883;29;20092;-68
2023/08/23 11:09:18;;;;;;;8.07;3.85;;;28.10;98.30;;;;;;4880026;29;20049;-69
2023/08/23 11:11:44;;;;;;;6.53;3.90;;;28.00;98.40;;;;;;4884889;29;20055;-70
2023/08/23 11:14:10;;;;;;;7.63;4.22;;;28.00;98.40;;;;;;4881573;29;20049;-70
2023/08/23 11:16:38;;;;;;;6.60;3.55;;;27.90;98.80;;;;;;4863783;29;20513;-69
2023/08/23 11:19:06;;;;;;;5.47;2.70;;;28.00;98.80;;;;;;4878890;29;20045;-69
2023/08/23 11:21:32;;;;;;;8.25;2.80;;;28.00;98.20;;;;;;4865855;29;20104;-69
2023/08/23 11:24:04;;;;;;;7.13;3.20;;;28.10;97.90;;;;;;4882655;29;20156;-75
2023/08/23 11:26:37;;;;;;;7.47;2.90;;;28.10;97.60;;;;;;4882202;29;20053;-69
2023/08/23 11:29:06;;;;;;;8.30;3.33;;;28.10;97.60;;;;;;4878253;29;20067;-70
2023/08/23 11:31:33;;;;;;;10.75;3.10;;;28.10;97.80;;;;;;4880158;29;20052;-69
2023/08/23 11:34:07;;;;;;;7.47;3.00;;;28.20;98.20;;;;;;4880200;29;20057;-74
2023/08/23 11:36:33;;;;;;;5.88;2.60;;;28.20;98.20;;;;;;4879240;29;20583;-68
2023/08/23 11:39:06;;;;;;;9.38;2.85;;;28.00;97.50;;;;;;4878138;29;20440;-74
2023/08/23 11:41:33;;;;;;;5.38;2.70;;;28.00;97.50;;;;;;4863363;29;20149;-70
2023/08/23 11:44:03;;;;;;;6.43;2.53;;;27.90;97.20;;;;;;4879979;29;20609;-73
2023/08/23 11:46:29;;;;;;;5.18;2.30;;;28.00;97.50;;;;;;4878427;29;20064;-68
2023/08/23 11:48:55;;;;;;;4.20;1.77;;;28.00;96.30;;;;;;4878571;29;20052;-68
2023/08/23 11:51:20;;;;;;;5.45;1.88;;;27.90;96.90;;;;;;4877803;29;20060;-68
2023/08/23 11:54:04;;;;;;;4.80;1.90;;;28.00;97.10;;;;;;4888948;29;20059;-69
2023/08/23 11:56:32;;;;;;;4.38;2.33;;;28.00;96.60;;;;;;4863084;29;20045;-69
2023/08/23 11:58:58;;;;;;;8.60;2.50;;;28.00;97.10;;;;;;4879493;29;20124;-69
2023/08/23 12:01:24;;;;;;;8.75;2.53;;;27.90;97.20;;;;;;4878708;29;20475;-70
2023/08/23 12:03:50;;;;;;;7.13;2.50;;;27.90;97.40;;;;;;4883268;29;20060;-70
2023/08/23 12:06:16;;;;;;;5.75;2.20;;;27.80;97.20;;;;;;4887993;29;20530;-69
2023/08/23 12:08:41;;;;;;;5.85;2.35;;;27.80;97.60;;;;;;4879543;29;20045;-70
2023/08/23 12:11:07;;;;;;;6.22;2.20;;;27.80;97.30;;;;;;4877652;29;20053;-69
2023/08/23 12:13:33;;;;;;;4.53;1.95;;;27.80;97.00;;;;;;4879107;29;20059;-71
2023/08/23 12:15:58;;;;;;;4.32;2.28;;;27.80;97.20;;;;;;4877068;29;20049;-72
2023/08/23 12:18:24;;;;;;;4.95;2.35;;;27.80;96.80;;;;;;4855867;29;20037;-71
2023/08/23 12:20:50;;;;;;;3.90;2.10;;;27.90;96.90;;;;;;4877917;29;20116;-71
2023/08/23 12:23:16;;;;;;;5.53;2.22;;;27.80;96.80;;;;;;4889352;29;20048;-71
2023/08/23 12:25:41;;;;;;;6.00;2.13;;;27.70;97.00;;;;;;4879288;29;20045;-71
2023/08/23 12:28:07;;;;;;;3.45;1.75;;;27.70;97.00;;;;;;4878537;29;20053;-71
2023/08/23 12:30:33;;;;;;;5.63;1.90;;;27.80;96.60;;;;;;4885009;29;20076;-69
2023/08/23 12:32:58;;;;;;;4.00;1.50;;;27.70;96.00;;;;;;4887486;29;20045;-69
2023/08/23 12:35:24;;;;;;;3.35;1.55;;;27.70;95.60;;;;;;4881473;29;20059;-70
2023/08/23 12:37:50;;;;;;;5.32;1.65;;;27.70;95.40;;;;;;4878351;29;20068;-70